Terminal Aerodrome Forecast
Issued by NWS New Orleans/Baton Rouge, LA

Home | Current Version | Previous Version | Text Only | Print | Product List | Glossary On
Versions: 1 2 3 4 5 6 7 8 9 10 11 12 13 14 15 16
000
FTUS44 KLIX 172340
TAFNEW
TAF
KNEW 172340Z 1800/1824 13004KT 2SM BR BKN005
     FM180300 14004KT 1/4SM FG BKN003
     FM181600 13005KT 1SM SHRA BKN004
     FM181800 13005KT 4SM BR BKN005 OVC030 PROB30 1818/1820 3/4SM
      -SHRA OVC003
     FM182000 16005KT 5SM BR BKN008 OVC035 PROB30 1820/1823 2SM
      -SHRA BR OVC003
     FM182300 14005KT 5SM BR BKN008 BKN040 PROB30 1823/1824 4SM
      -SHRA OVC003=

USA.gov is the U.S. government's official web portal to all federal, state and local government web resources and services.